sensor_id;sensor_type;location;lat;lon;timestamp;pressure;altitude;pressure_sealevel;temperature;humidity
2397;BME280;1209;48.410;9.054;2022-10-16T00:00:33;96120.66;;;16.02;100.00
2397;BME280;1209;48.410;9.054;2022-10-16T00:02:59;96126.50;;;16.11;100.00
2397;BME280;1209;48.410;9.054;2022-10-16T00:05:24;96117.06;;;15.96;100.00
2397;BME280;1209;48.410;9.054;2022-10-16T00:07:49;96121.50;;;15.96;100.00
2397;BME280;1209;48.410;9.054;2022-10-16T00:10:15;96125.72;;;16.03;100.00
2397;BME280;1209;48.410;9.054;2022-10-16T00:12:40;96126.34;;;15.99;100.00
2397;BME280;1209;48.410;9.054;2022-10-16T00:15:06;96132.03;;;15.96;100.00
2397;BME280;1209;48.410;9.054;2022-10-16T00:17:31;96133.34;;;15.80;100.00
2397;BME280;1209;48.410;9.054;2022-10-16T00:19:57;96133.78;;;15.77;100.00
2397;BME280;1209;48.410;9.054;2022-10-16T00:22:23;96133.00;;;15.70;100.00
2397;BME280;1209;48.410;9.054;2022-10-16T00:24:49;96132.97;;;15.77;100.00
2397;BME280;1209;48.410;9.054;2022-10-16T00:27:14;96135.25;;;15.60;100.00
2397;BME280;1209;48.410;9.054;2022-10-16T00:29:39;96134.66;;;15.64;100.00
2397;BME280;1209;48.410;9.054;2022-10-16T00:32:05;96135.66;;;15.63;100.00
2397;BME280;1209;48.410;9.054;2022-10-16T00:34:30;96132.44;;;15.61;100.00
2397;BME280;1209;48.410;9.054;2022-10-16T00:36:56;96136.91;;;15.61;100.00
2397;BME280;1209;48.410;9.054;2022-10-16T00:39:21;96125.91;;;15.57;100.00
2397;BME280;1209;48.410;9.054;2022-10-16T00:41:47;96132.19;;;15.56;100.00
2397;BME280;1209;48.410;9.054;2022-10-16T00:44:48;96126.94;;;15.56;100.00
2397;BME280;1209;48.410;9.054;2022-10-16T00:47:39;96132.19;;;15.56;100.00
2397;BME280;1209;48.410;9.054;2022-10-16T00:50:29;96134.66;;;15.51;100.00
2397;BME280;1209;48.410;9.054;2022-10-16T00:52:56;96139.72;;;15.46;100.00
2397;BME280;1209;48.410;9.054;2022-10-16T00:55:23;96133.56;;;15.14;100.00
2397;BME280;1209;48.410;9.054;2022-10-16T00:57:49;96132.06;;;15.38;100.00
2397;BME280;1209;48.410;9.054;2022-10-16T01:00:19;96129.09;;;15.15;100.00
2397;BME280;1209;48.410;9.054;2022-10-16T01:02:44;96130.28;;;15.32;100.00
2397;BME280;1209;48.410;9.054;2022-10-16T01:05:09;96132.84;;;15.45;100.00
2397;BME280;1209;48.410;9.054;2022-10-16T01:08:05;96139.41;;;15.23;100.00
2397;BME280;1209;48.410;9.054;2022-10-16T01:13:05;96142.19;;;15.34;100.00
2397;BME280;1209;48.410;9.054;2022-10-16T01:16:04;96142.81;;;15.30;100.00
2397;BME280;1209;48.410;9.054;2022-10-16T01:18:45;96143.44;;;15.32;100.00
2397;BME280;1209;48.410;9.054;2022-10-16T01:21:28;96141.00;;;15.30;100.00
2397;BME280;1209;48.410;9.054;2022-10-16T01:32:38;96144.81;;;15.41;100.00
2397;BME280;1209;48.410;9.054;2022-10-16T01:35:11;96139.94;;;15.44;100.00
2397;BME280;1209;48.410;9.054;2022-10-16T01:37:48;96143.38;;;15.45;100.00
2397;BME280;1209;48.410;9.054;2022-10-16T01:40:16;96134.66;;;15.44;100.00
2397;BME280;1209;48.410;9.054;2022-10-16T01:42:52;96148.47;;;15.40;100.00
2397;BME280;1209;48.410;9.054;2022-10-16T01:45:21;96143.81;;;15.35;100.00
2397;BME280;1209;48.410;9.054;2022-10-16T01:47:47;96146.88;;;15.32;100.00
2397;BME280;1209;48.410;9.054;2022-10-16T01:50:16;96141.81;;;15.31;100.00
2397;BME280;1209;48.410;9.054;2022-10-16T01:52:45;96141.81;;;15.31;100.00
2397;BME280;1209;48.410;9.054;2022-10-16T01:55:15;96139.19;;;15.31;100.00
2397;BME280;1209;48.410;9.054;2022-10-16T01:57:43;96140.19;;;15.30;100.00
2397;BME280;1209;48.410;9.054;2022-10-16T02:00:12;96144.44;;;15.31;100.00
2397;BME280;1209;48.410;9.054;2022-10-16T02:02:45;96152.94;;;15.33;100.00
2397;BME280;1209;48.410;9.054;2022-10-16T02:05:21;96145.47;;;15.30;100.00
2397;BME280;1209;48.410;9.054;2022-10-16T02:07:48;96144.69;;;15.16;100.00
2397;BME280;1209;48.410;9.054;2022-10-16T02:10:14;96143.84;;;15.29;100.00
2397;BME280;1209;48.410;9.054;2022-10-16T02:12:45;96137.78;;;15.28;100.00
2397;BME280;1209;48.410;9.054;2022-10-16T02:15:12;96146.25;;;15.30;100.00
2397;BME280;1209;48.410;9.054;2022-10-16T02:17:37;96140.41;;;15.28;100.00
2397;BME280;1209;48.410;9.054;2022-10-16T02:20:04;96157.00;;;15.29;100.00
2397;BME280;1209;48.410;9.054;2022-10-16T02:22:33;96150.75;;;15.23;100.00
2397;BME280;1209;48.410;9.054;2022-10-16T02:25:06;96147.53;;;15.15;100.00
2397;BME280;1209;48.410;9.054;2022-10-16T02:32:42;96148.53;;;15.14;100.00
2397;BME280;1209;48.410;9.054;2022-10-16T02:35:09;96150.53;;;15.11;100.00
2397;BME280;1209;48.410;9.054;2022-10-16T02:37:35;96147.31;;;15.03;100.00
2397;BME280;1209;48.410;9.054;2022-10-16T02:40:02;96156.22;;;15.08;100.00
2397;BME280;1209;48.410;9.054;2022-10-16T02:42:34;96160.25;;;15.11;100.00
2397;BME280;1209;48.410;9.054;2022-10-16T02:45:00;96158.63;;;15.10;100.00
2397;BME280;1209;48.410;9.054;2022-10-16T02:47:25;96151.97;;;15.14;100.00
2397;BME280;1209;48.410;9.054;2022-10-16T02:49:51;96156.03;;;15.17;100.00
2397;BME280;1209;48.410;9.054;2022-10-16T02:52:16;96151.34;;;15.12;100.00
2397;BME280;1209;48.410;9.054;2022-10-16T02:54:41;96150.34;;;15.13;100.00
2397;BME280;1209;48.410;9.054;2022-10-16T02:57:07;96149.72;;;15.11;100.00
2397;BME280;1209;48.410;9.054;2022-10-16T02:59:32;96148.53;;;15.14;100.00
2397;BME280;1209;48.410;9.054;2022-10-16T03:01:57;96148.91;;;15.10;100.00
2397;BME280;1209;48.410;9.054;2022-10-16T03:04:23;96145.09;;;15.06;100.00
2397;BME280;1209;48.410;9.054;2022-10-16T03:06:48;96138.59;;;15.09;100.00
2397;BME280;1209;48.410;9.054;2022-10-16T03:09:14;96142.84;;;15.10;100.00
2397;BME280;1209;48.410;9.054;2022-10-16T03:11:39;96147.72;;;15.06;100.00
2397;BME280;1209;48.410;9.054;2022-10-16T03:14:04;96147.72;;;15.00;100.00
2397;BME280;1209;48.410;9.054;2022-10-16T03:16:30;96150.56;;;14.92;100.00
2397;BME280;1209;48.410;9.054;2022-10-16T03:18:55;96143.47;;;14.99;100.00
2397;BME280;1209;48.410;9.054;2022-10-16T03:21:20;96151.00;;;14.89;100.00
2397;BME280;1209;48.410;9.054;2022-10-16T03:23:46;96152.59;;;14.96;100.00
2397;BME280;1209;48.410;9.054;2022-10-16T03:26:11;96156.06;;;14.84;100.00
2397;BME280;1209;48.410;9.054;2022-10-16T03:28:37;96155.03;;;14.78;100.00
2397;BME280;1209;48.410;9.054;2022-10-16T03:31:02;96151.59;;;14.77;100.00
2397;BME280;1209;48.410;9.054;2022-10-16T03:33:27;96152.81;;;14.82;100.00
2397;BME280;1209;48.410;9.054;2022-10-16T03:35:54;96147.75;;;14.80;100.00
2397;BME280;1209;48.410;9.054;2022-10-16T03:38:20;96155.84;;;14.85;100.00
2397;BME280;1209;48.410;9.054;2022-10-16T03:40:45;96158.06;;;14.88;100.00
2397;BME280;1209;48.410;9.054;2022-10-16T03:43:11;96152.81;;;14.88;100.00
2397;BME280;1209;48.410;9.054;2022-10-16T03:45:36;96146.53;;;14.89;100.00
2397;BME280;1209;48.410;9.054;2022-10-16T03:48:01;96155.84;;;14.85;100.00
2397;BME280;1209;48.410;9.054;2022-10-16T03:50:28;96154.84;;;14.79;100.00
2397;BME280;1209;48.410;9.054;2022-10-16T03:52:54;96154.03;;;14.72;100.00
2397;BME280;1209;48.410;9.054;2022-10-16T03:55:19;96166.38;;;14.85;100.00
2397;BME280;1209;48.410;9.054;2022-10-16T03:57:44;96165.16;;;14.81;100.00
2397;BME280;1209;48.410;9.054;2022-10-16T04:00:10;96162.94;;;14.78;100.00
2397;BME280;1209;48.410;9.054;2022-10-16T04:02:36;96171.22;;;14.75;100.00
2397;BME280;1209;48.410;9.054;2022-10-16T04:05:01;96172.03;;;14.69;100.00
2397;BME280;1209;48.410;9.054;2022-10-16T04:07:26;96172.41;;;14.66;100.00
2397;BME280;1209;48.410;9.054;2022-10-16T04:09:51;96167.78;;;14.68;100.00
2397;BME280;1209;48.410;9.054;2022-10-16T04:12:17;96165.56;;;14.71;100.00
2397;BME280;1209;48.410;9.054;2022-10-16T04:14:42;96171.03;;;14.76;100.00
2397;BME280;1209;48.410;9.054;2022-10-16T04:17:07;96167.38;;;14.71;100.00
2397;BME280;1209;48.410;9.054;2022-10-16T04:19:33;96168.41;;;14.76;100.00
2397;BME280;1209;48.410;9.054;2022-10-16T04:21:58;96158.47;;;14.78;100.00
2397;BME280;1209;48.410;9.054;2022-10-16T04:24:23;96156.66;;;14.53;100.00
2397;BME280;1209;48.410;9.054;2022-10-16T04:26:48;96161.53;;;14.75;100.00
2397;BME280;1209;48.410;9.054;2022-10-16T04:29:14;96162.09;;;14.58;100.00
2397;BME280;1209;48.410;9.054;2022-10-16T04:31:39;96160.72;;;14.75;100.00
2397;BME280;1209;48.410;9.054;2022-10-16T04:34:05;96160.72;;;14.82;100.00
2397;BME280;1209;48.410;9.054;2022-10-16T04:36:30;96157.47;;;14.79;100.00
2397;BME280;1209;48.410;9.054;2022-10-16T04:38:56;96163.75;;;14.72;100.00
2397;BME280;1209;48.410;9.054;2022-10-16T04:41:21;96159.09;;;14.74;100.00
2397;BME280;1209;48.410;9.054;2022-10-16T04:43:46;96159.91;;;14.74;100.00
2397;BME280;1209;48.410;9.054;2022-10-16T04:46:12;96168.81;;;14.73;100.00
2397;BME280;1209;48.410;9.054;2022-10-16T04:48:37;96174.22;;;14.65;100.00
2397;BME280;1209;48.410;9.054;2022-10-16T04:51:02;96175.69;;;14.74;100.00
2397;BME280;1209;48.410;9.054;2022-10-16T04:53:28;96183.34;;;14.83;100.00
2397;BME280;1209;48.410;9.054;2022-10-16T04:55:53;96182.94;;;14.79;100.00
2397;BME280;1209;48.410;9.054;2022-10-16T04:58:18;96181.50;;;14.50;100.00
2397;BME280;1209;48.410;9.054;2022-10-16T05:00:46;96185.38;;;14.67;100.00
2397;BME280;1209;48.410;9.054;2022-10-16T05:03:12;96186.19;;;14.68;100.00
2397;BME280;1209;48.410;9.054;2022-10-16T05:05:43;96188.78;;;14.55;100.00
2397;BME280;1209;48.410;9.054;2022-10-16T05:08:09;96189.19;;;14.65;100.00
2397;BME280;1209;48.410;9.054;2022-10-16T05:10:35;96198.72;;;14.72;100.00
2397;BME280;1209;48.410;9.054;2022-10-16T05:13:00;96195.88;;;14.61;100.00
2397;BME280;1209;48.410;9.054;2022-10-16T05:15:25;96194.28;;;14.66;100.00
2397;BME280;1209;48.410;9.054;2022-10-16T05:17:54;96203.97;;;14.66;100.00
2397;BME280;1209;48.410;9.054;2022-10-16T05:20:20;96205.19;;;14.70;100.00
2397;BME280;1209;48.410;9.054;2022-10-16T05:22:45;96195.06;;;14.60;100.00
2397;BME280;1209;48.410;9.054;2022-10-16T05:25:11;96196.69;;;14.55;100.00
2397;BME280;1209;48.410;9.054;2022-10-16T05:27:36;96197.06;;;14.52;100.00
2397;BME280;1209;48.410;9.054;2022-10-16T05:30:02;96204.78;;;14.66;100.00
2397;BME280;1209;48.410;9.054;2022-10-16T05:32:27;96198.28;;;14.62;100.00
2397;BME280;1209;48.410;9.054;2022-10-16T05:34:53;96198.88;;;14.44;100.00
2397;BME280;1209;48.410;9.054;2022-10-16T05:37:18;96195.66;;;14.62;100.00
2397;BME280;1209;48.410;9.054;2022-10-16T05:39:44;96209.59;;;14.49;100.00
2397;BME280;1209;48.410;9.054;2022-10-16T05:42:10;96209.22;;;14.53;100.00
2397;BME280;1209;48.410;9.054;2022-10-16T05:44:36;96205.97;;;14.57;100.00
2397;BME280;1209;48.410;9.054;2022-10-16T05:47:01;96205.97;;;14.57;100.00
2397;BME280;1209;48.410;9.054;2022-10-16T05:49:27;96216.09;;;14.60;100.00
2397;BME280;1209;48.410;9.054;2022-10-16T05:51:52;96209.41;;;14.51;100.00
2397;BME280;1209;48.410;9.054;2022-10-16T05:54:20;96214.06;;;14.62;100.00
2397;BME280;1209;48.410;9.054;2022-10-16T05:56:45;96214.47;;;14.66;100.00
2397;BME280;1209;48.410;9.054;2022-10-16T05:59:10;96223.81;;;14.75;100.00
2397;BME280;1209;48.410;9.054;2022-10-16T06:01:36;96225.81;;;14.86;100.00
2397;BME280;1209;48.410;9.054;2022-10-16T06:04:02;96231.28;;;14.78;100.00
2397;BME280;1209;48.410;9.054;2022-10-16T06:06:27;96232.91;;;14.86;100.00
2397;BME280;1209;48.410;9.054;2022-10-16T06:08:54;96239.59;;;14.88;100.00
2397;BME280;1209;48.410;9.054;2022-10-16T06:11:23;96235.13;;;14.82;100.00
2397;BME280;1209;48.410;9.054;2022-10-16T06:13:54;96242.00;;;14.90;100.00
2397;BME280;1209;48.410;9.054;2022-10-16T06:16:25;96240.78;;;14.79;100.00
2397;BME280;1209;48.410;9.054;2022-10-16T06:18:52;96238.38;;;14.71;100.00
2397;BME280;1209;48.410;9.054;2022-10-16T06:21:20;96248.28;;;14.82;100.00
2397;BME280;1209;48.410;9.054;2022-10-16T06:23:46;96260.63;;;14.82;100.00
2397;BME280;1209;48.410;9.054;2022-10-16T06:26:14;96253.53;;;14.89;100.00
2397;BME280;1209;48.410;9.054;2022-10-16T06:28:40;96251.72;;;14.69;100.00
2397;BME280;1209;48.410;9.054;2022-10-16T06:31:09;96249.66;;;14.65;100.00
2397;BME280;1209;48.410;9.054;2022-10-16T06:33:35;96255.34;;;14.88;100.00
2397;BME280;1209;48.410;9.054;2022-10-16T06:36:06;96259.59;;;14.96;100.00
2397;BME280;1209;48.410;9.054;2022-10-16T06:38:33;96270.53;;;15.06;100.00
2397;BME280;1209;48.410;9.054;2022-10-16T06:40:58;96267.50;;;15.09;100.00
2397;BME280;1209;48.410;9.054;2022-10-16T06:43:24;96272.38;;;15.19;100.00
2397;BME280;1209;48.410;9.054;2022-10-16T06:45:54;96279.66;;;15.23;100.00
2397;BME280;1209;48.410;9.054;2022-10-16T06:48:21;96283.50;;;15.27;100.00
2397;BME280;1209;48.410;9.054;2022-10-16T06:53:35;96276.59;;;15.39;100.00
2397;BME280;1209;48.410;9.054;2022-10-16T06:56:13;96278.84;;;15.29;100.00
2397;BME280;1209;48.410;9.054;2022-10-16T06:58:39;96298.25;;;15.35;100.00
2397;BME280;1209;48.410;9.054;2022-10-16T07:01:06;96292.56;;;15.51;100.00
2397;BME280;1209;48.410;9.054;2022-10-16T07:03:32;96305.13;;;15.42;100.00
2397;BME280;1209;48.410;9.054;2022-10-16T07:06:01;96307.16;;;15.54;100.00
2397;BME280;1209;48.410;9.054;2022-10-16T07:08:27;96303.13;;;15.58;100.00
2397;BME280;1209;48.410;9.054;2022-10-16T07:11:05;96309.38;;;15.57;100.00
2397;BME280;1209;48.410;9.054;2022-10-16T07:13:33;96313.47;;;15.66;100.00
2397;BME280;1209;48.410;9.054;2022-10-16T07:16:07;96310.03;;;15.65;100.00
2397;BME280;1209;48.410;9.054;2022-10-16T07:18:33;96318.50;;;15.81;100.00
2397;BME280;1209;48.410;9.054;2022-10-16T07:21:06;96313.22;;;15.87;100.00
2397;BME280;1209;48.410;9.054;2022-10-16T07:23:32;96315.00;;;16.00;100.00
2397;BME280;1209;48.410;9.054;2022-10-16T07:25:57;96322.88;;;16.06;100.00
2397;BME280;1209;48.410;9.054;2022-10-16T07:28:22;96325.13;;;16.10;100.00
2397;BME280;1209;48.410;9.054;2022-10-16T07:30:48;96322.25;;;16.18;100.00
2397;BME280;1209;48.410;9.054;2022-10-16T07:33:13;96330.97;;;16.18;100.00
2397;BME280;1209;48.410;9.054;2022-10-16T07:35:51;96327.13;;;16.14;100.00
2397;BME280;1209;48.410;9.054;2022-10-16T07:38:16;96326.31;;;16.20;100.00
2397;BME280;1209;48.410;9.054;2022-10-16T07:40:42;96349.34;;;16.38;100.00
2397;BME280;1209;48.410;9.054;2022-10-16T07:43:08;96356.78;;;16.54;100.00
2397;BME280;1209;48.410;9.054;2022-10-16T07:45:33;96366.91;;;16.64;100.00
2397;BME280;1209;48.410;9.054;2022-10-16T07:47:58;96369.34;;;16.65;100.00
2397;BME280;1209;48.410;9.054;2022-10-16T07:50:23;96367.91;;;16.63;100.00
2397;BME280;1209;48.410;9.054;2022-10-16T07:52:49;96375.44;;;16.66;100.00
2397;BME280;1209;48.410;9.054;2022-10-16T07:55:14;96376.25;;;16.60;100.00
2397;BME280;1209;48.410;9.054;2022-10-16T07:57:39;96387.56;;;16.74;100.00
2397;BME280;1209;48.410;9.054;2022-10-16T08:00:05;96373.63;;;16.66;100.00
2397;BME280;1209;48.410;9.054;2022-10-16T08:02:31;96372.19;;;16.64;100.00
2397;BME280;1209;48.410;9.054;2022-10-16T08:04:56;96380.00;;;16.84;100.00
2397;BME280;1209;48.410;9.054;2022-10-16T08:07:22;96379.69;;;16.67;100.00
2397;BME280;1209;48.410;9.054;2022-10-16T08:09:49;96367.28;;;16.74;100.00
2397;BME280;1209;48.410;9.054;2022-10-16T08:12:16;96372.31;;;16.82;100.00
2397;BME280;1209;48.410;9.054;2022-10-16T08:14:41;96368.19;;;16.93;100.00
2397;BME280;1209;48.410;9.054;2022-10-16T08:17:06;96375.25;;;17.06;100.00
2397;BME280;1209;48.410;9.054;2022-10-16T08:19:32;96379.28;;;17.08;100.00
2397;BME280;1209;48.410;9.054;2022-10-16T08:21:59;96385.25;;;17.28;100.00
2397;BME280;1209;48.410;9.054;2022-10-16T08:24:24;96385.56;;;17.39;100.00
2397;BME280;1209;48.410;9.054;2022-10-16T08:26:50;96381.63;;;17.48;100.00
2397;BME280;1209;48.410;9.054;2022-10-16T08:29:15;96392.78;;;17.56;100.00
2397;BME280;1209;48.410;9.054;2022-10-16T08:31:40;96387.22;;;17.65;100.00
2397;BME280;1209;48.410;9.054;2022-10-16T08:34:06;96394.91;;;17.73;100.00
2397;BME280;1209;48.410;9.054;2022-10-16T08:36:31;96400.56;;;17.76;100.00
2397;BME280;1209;48.410;9.054;2022-10-16T08:38:56;96401.09;;;17.85;100.00
2397;BME280;1209;48.410;9.054;2022-10-16T08:50:08;96414.16;;;18.41;100.00
2397;BME280;1209;48.410;9.054;2022-10-16T08:52:39;96410.00;;;18.52;100.00
2397;BME280;1209;48.410;9.054;2022-10-16T08:55:05;96411.13;;;18.63;100.00
2397;BME280;1209;48.410;9.054;2022-10-16T08:57:31;96419.41;;;18.84;100.00
2397;BME280;1209;48.410;9.054;2022-10-16T09:00:12;96421.09;;;19.27;100.00
2397;BME280;1209;48.410;9.054;2022-10-16T09:03:07;96439.78;;;19.62;100.00
2397;BME280;1209;48.410;9.054;2022-10-16T09:05:54;96437.78;;;20.11;100.00
2397;BME280;1209;48.410;9.054;2022-10-16T09:13:51;96427.13;;;21.78;100.00
2397;BME280;1209;48.410;9.054;2022-10-16T09:16:24;96435.66;;;22.14;100.00
2397;BME280;1209;48.410;9.054;2022-10-16T09:19:01;96442.59;;;21.98;100.00
2397;BME280;1209;48.410;9.054;2022-10-16T09:21:31;96433.59;;;21.54;100.00
2397;BME280;1209;48.410;9.054;2022-10-16T09:24:16;96439.59;;;21.32;100.00
2397;BME280;1209;48.410;9.054;2022-10-16T09:26:44;96438.34;;;21.23;100.00
2397;BME280;1209;48.410;9.054;2022-10-16T09:29:13;96441.84;;;21.12;100.00
2397;BME280;1209;48.410;9.054;2022-10-16T09:31:40;96445.19;;;21.08;100.00
2397;BME280;1209;48.410;9.054;2022-10-16T09:34:20;96450.31;;;20.97;100.00
2397;BME280;1209;48.410;9.054;2022-10-16T09:36:51;96451.94;;;20.98;100.00
2397;BME280;1209;48.410;9.054;2022-10-16T09:39:16;96450.06;;;20.99;100.00
2397;BME280;1209;48.410;9.054;2022-10-16T09:41:44;96450.31;;;20.97;100.00
2397;BME280;1209;48.410;9.054;2022-10-16T09:44:21;96449.31;;;20.87;100.00
2397;BME280;1209;48.410;9.054;2022-10-16T09:46:48;96455.19;;;20.77;100.00
2397;BME280;1209;48.410;9.054;2022-10-16T09:49:26;96458.31;;;20.74;100.00
2397;BME280;1209;48.410;9.054;2022-10-16T09:52:13;96460.41;;;20.72;100.00
2397;BME280;1209;48.410;9.054;2022-10-16T09:54:57;96459.38;;;20.61;100.00
2397;BME280;1209;48.410;9.054;2022-10-16T09:57:22;96454.63;;;20.63;100.00
2397;BME280;1209;48.410;9.054;2022-10-16T09:59:50;96461.22;;;20.61;100.00
2397;BME280;1209;48.410;9.054;2022-10-16T10:02:35;96463.09;;;20.49;100.00
2397;BME280;1209;48.410;9.054;2022-10-16T10:05:01;96465.84;;;20.54;100.00
2397;BME280;1209;48.410;9.054;2022-10-16T10:07:31;96458.59;;;20.49;100.00
2397;BME280;1209;48.410;9.054;2022-10-16T10:10:02;96460.31;;;20.55;100.00
2397;BME280;1209;48.410;9.054;2022-10-16T10:12:29;96459.38;;;20.61;100.00
2397;BME280;1209;48.410;9.054;2022-10-16T10:15:03;96450.72;;;20.66;100.00
2397;BME280;1209;48.410;9.054;2022-10-16T10:17:30;96452.47;;;20.60;100.00
2397;BME280;1209;48.410;9.054;2022-10-16T10:19:58;96459.84;;;20.58;100.00
2397;BME280;1209;48.410;9.054;2022-10-16T10:22:42;96458.22;;;20.57;100.00
2397;BME280;1209;48.410;9.054;2022-10-16T10:38:58;96452.84;;;22.06;99.94
2397;BME280;1209;48.410;9.054;2022-10-16T10:41:40;96458.84;;;22.52;95.00
2397;BME280;1209;48.410;9.054;2022-10-16T10:46:50;96458.13;;;23.17;87.83
2397;BME280;1209;48.410;9.054;2022-10-16T10:55:03;96460.47;;;23.35;84.78
2397;BME280;1209;48.410;9.054;2022-10-16T11:06:15;96441.81;;;23.13;83.53
2397;BME280;1209;48.410;9.054;2022-10-16T11:08:50;96442.75;;;23.02;87.10
2397;BME280;1209;48.410;9.054;2022-10-16T11:11:32;96445.75;;;22.84;85.18
2397;BME280;1209;48.410;9.054;2022-10-16T11:14:04;96449.38;;;22.78;87.27
2397;BME280;1209;48.410;9.054;2022-10-16T11:16:42;96452.22;;;22.71;85.29
2397;BME280;1209;48.410;9.054;2022-10-16T11:22:00;96439.06;;;22.65;82.92
2397;BME280;1209;48.410;9.054;2022-10-16T11:24:52;96439.72;;;22.55;83.47
2397;BME280;1209;48.410;9.054;2022-10-16T11:27:36;96437.00;;;22.50;85.26
2397;BME280;1209;48.410;9.054;2022-10-16T11:30:05;96445.78;;;22.50;87.89
2397;BME280;1209;48.410;9.054;2022-10-16T11:32:36;96441.78;;;22.48;89.12
2397;BME280;1209;48.410;9.054;2022-10-16T11:35:11;96444.03;;;22.39;89.41
2397;BME280;1209;48.410;9.054;2022-10-16T11:37:43;96443.00;;;22.40;91.56
2397;BME280;1209;48.410;9.054;2022-10-16T11:40:23;96438.22;;;22.42;89.69
2397;BME280;1209;48.410;9.054;2022-10-16T11:45:39;96439.91;;;22.48;90.82
2397;BME280;1209;48.410;9.054;2022-10-16T11:50:57;96434.16;;;22.56;88.25
2397;BME280;1209;48.410;9.054;2022-10-16T11:56:04;96431.88;;;22.65;87.40
2397;BME280;1209;48.410;9.054;2022-10-16T11:58:33;96423.63;;;22.67;92.51
2397;BME280;1209;48.410;9.054;2022-10-16T12:01:21;96436.72;;;22.68;88.48
2397;BME280;1209;48.410;9.054;2022-10-16T12:08:59;96430.00;;;22.66;86.39
2397;BME280;1209;48.410;9.054;2022-10-16T12:16:57;96431.50;;;22.56;93.77
2397;BME280;1209;48.410;9.054;2022-10-16T12:19:28;96427.84;;;22.62;96.46
2397;BME280;1209;48.410;9.054;2022-10-16T12:21:58;96427.34;;;22.66;89.97
2397;BME280;1209;48.410;9.054;2022-10-16T12:24:38;96429.22;;;22.82;86.48
2397;BME280;1209;48.410;9.054;2022-10-16T12:27:06;96427.72;;;22.91;87.87
2397;BME280;1209;48.410;9.054;2022-10-16T12:29:39;96418.97;;;22.96;86.86
2397;BME280;1209;48.410;9.054;2022-10-16T12:32:35;96416.25;;;22.90;94.01
2397;BME280;1209;48.410;9.054;2022-10-16T12:35:02;96429.56;;;22.90;94.48
2397;BME280;1209;48.410;9.054;2022-10-16T12:37:33;96426.97;;;22.96;89.33
2397;BME280;1209;48.410;9.054;2022-10-16T12:39:59;96426.47;;;22.99;87.99
2397;BME280;1209;48.410;9.054;2022-10-16T12:42:36;96422.19;;;22.98;89.61
2397;BME280;1209;48.410;9.054;2022-10-16T12:45:22;96423.50;;;22.95;94.61
2397;BME280;1209;48.410;9.054;2022-10-16T12:47:51;96422.03;;;22.82;92.27
2397;BME280;1209;48.410;9.054;2022-10-16T12:52:52;96422.84;;;22.83;89.63
2397;BME280;1209;48.410;9.054;2022-10-16T12:55:20;96423.53;;;22.78;99.25
2397;BME280;1209;48.410;9.054;2022-10-16T13:00:47;96418.38;;;22.88;92.19
2397;BME280;1209;48.410;9.054;2022-10-16T13:06:13;96431.38;;;22.85;97.29
2397;BME280;1209;48.410;9.054;2022-10-16T13:21:50;96446.97;;;22.59;95.84
2397;BME280;1209;48.410;9.054;2022-10-16T13:27:23;96442.63;;;22.53;98.26
2397;BME280;1209;48.410;9.054;2022-10-16T13:30:02;96444.19;;;22.49;97.36
2397;BME280;1209;48.410;9.054;2022-10-16T13:32:34;96441.22;;;22.46;100.00
2397;BME280;1209;48.410;9.054;2022-10-16T13:34:59;96440.47;;;22.50;100.00
2397;BME280;1209;48.410;9.054;2022-10-16T13:37:26;96440.47;;;22.50;100.00
2397;BME280;1209;48.410;9.054;2022-10-16T13:40:04;96444.44;;;22.48;100.00
2397;BME280;1209;48.410;9.054;2022-10-16T13:42:32;96440.66;;;22.44;100.00
2397;BME280;1209;48.410;9.054;2022-10-16T13:44:58;96450.31;;;22.50;100.00
2397;BME280;1209;48.410;9.054;2022-10-16T13:47:28;96446.53;;;22.46;100.00
2397;BME280;1209;48.410;9.054;2022-10-16T13:50:09;96442.00;;;22.46;100.00
2397;BME280;1209;48.410;9.054;2022-10-16T13:52:36;96435.94;;;22.51;100.00
2397;BME280;1209;48.410;9.054;2022-10-16T13:55:04;96446.09;;;22.54;98.31
2397;BME280;1209;48.410;9.054;2022-10-16T13:57:29;96436.56;;;22.58;99.14
2397;BME280;1209;48.410;9.054;2022-10-16T13:59:55;96435.22;;;22.55;100.00
2397;BME280;1209;48.410;9.054;2022-10-16T14:02:30;96434.84;;;22.69;96.01
2397;BME280;1209;48.410;9.054;2022-10-16T14:04:57;96431.06;;;22.65;100.00
2397;BME280;1209;48.410;9.054;2022-10-16T14:07:28;96436.47;;;22.70;98.00
2397;BME280;1209;48.410;9.054;2022-10-16T14:09:55;96432.28;;;22.74;97.91
2397;BME280;1209;48.410;9.054;2022-10-16T14:12:23;96438.97;;;22.76;100.00
2397;BME280;1209;48.410;9.054;2022-10-16T14:14:51;96427.25;;;22.77;99.51
2397;BME280;1209;48.410;9.054;2022-10-16T14:17:26;96429.88;;;22.72;100.00
2397;BME280;1209;48.410;9.054;2022-10-16T14:19:55;96433.59;;;22.71;100.00
2397;BME280;1209;48.410;9.054;2022-10-16T14:22:40;96439.97;;;22.53;100.00
2397;BME280;1209;48.410;9.054;2022-10-16T14:25:24;96446.78;;;22.44;100.00
2397;BME280;1209;48.410;9.054;2022-10-16T14:28:20;96436.94;;;22.45;100.00
2397;BME280;1209;48.410;9.054;2022-10-16T14:30:51;96440.41;;;22.45;100.00
2397;BME280;1209;48.410;9.054;2022-10-16T14:33:34;96440.03;;;22.37;100.00
2397;BME280;1209;48.410;9.054;2022-10-16T14:38:25;96444.53;;;22.19;100.00
2397;BME280;1209;48.410;9.054;2022-10-16T14:40:51;96445.03;;;22.16;100.00
2397;BME280;1209;48.410;9.054;2022-10-16T14:43:22;96438.66;;;22.17;100.00
2397;BME280;1209;48.410;9.054;2022-10-16T14:45:54;96451.31;;;22.27;100.00
2397;BME280;1209;48.410;9.054;2022-10-16T14:48:20;96448.91;;;22.25;100.00
2397;BME280;1209;48.410;9.054;2022-10-16T14:50:46;96451.41;;;22.15;100.00
2397;BME280;1209;48.410;9.054;2022-10-16T14:53:12;96450.19;;;22.23;100.00
2397;BME280;1209;48.410;9.054;2022-10-16T14:55:38;96450.91;;;22.18;100.00
2397;BME280;1209;48.410;9.054;2022-10-16T14:58:05;96453.50;;;22.13;100.00
2397;BME280;1209;48.410;9.054;2022-10-16T15:00:33;96456.81;;;22.04;100.00
2397;BME280;1209;48.410;9.054;2022-10-16T15:02:58;96457.25;;;22.00;100.00
2397;BME280;1209;48.410;9.054;2022-10-16T15:05:26;96462.25;;;21.97;100.00
2397;BME280;1209;48.410;9.054;2022-10-16T15:07:53;96464.34;;;21.95;100.00
2397;BME280;1209;48.410;9.054;2022-10-16T15:10:20;96462.91;;;21.87;100.00
2397;BME280;1209;48.410;9.054;2022-10-16T15:12:46;96462.06;;;21.70;100.00
2397;BME280;1209;48.410;9.054;2022-10-16T15:15:21;96465.44;;;21.65;100.00